Time;durP1;ratioP1;P1;durP2;ratioP2;P2;SDS_P1;SDS_P2;PMS_P1;PMS_P2;Temp;Humidity;BMP_temperature;BMP_pressure;BME280_temperature;BME280_humidity;BME280_pressure;Samples;Min_cycle;Max_cycle;Signal;HPM_P1;HPM_P2
2023/12/10 00:02:16;;;;;;;0.40;0.40;;;5.40;99.90;;;;;;5050810;28;20194;-61
2023/12/10 00:04:42;;;;;;;3.53;1.33;;;5.50;99.90;;;;;;5051454;28;20166;-61
2023/12/10 00:07:08;;;;;;;0.30;0.30;;;5.60;99.90;;;;;;5051273;28;20652;-62
2023/12/10 00:09:34;;;;;;;0.30;0.30;;;5.70;99.90;;;;;;5050491;28;20257;-61
2023/12/10 00:12:00;;;;;;;0.67;0.67;;;5.70;99.90;;;;;;5050717;28;20552;-61
2023/12/10 00:14:25;;;;;;;0.40;0.40;;;5.70;99.90;;;;;;5051414;28;20174;-61
2023/12/10 00:16:52;;;;;;;0.37;0.37;;;5.50;99.90;;;;;;5051306;28;20704;-61
2023/12/10 00:19:18;;;;;;;0.35;0.35;;;5.60;99.90;;;;;;5051209;28;20552;-61
2023/12/10 00:21:44;;;;;;;3.20;0.50;;;5.70;99.90;;;;;;5050730;28;20219;-61
2023/12/10 00:24:09;;;;;;;0.73;0.70;;;5.80;99.90;;;;;;5051021;28;20179;-62
2023/12/10 00:26:35;;;;;;;0.30;0.30;;;5.90;99.90;;;;;;5051169;28;20265;-61
2023/12/10 00:29:01;;;;;;;1.13;0.50;;;5.90;99.90;;;;;;5051186;28;20170;-61
2023/12/10 00:31:27;;;;;;;0.40;0.40;;;5.90;99.90;;;;;;5050664;28;20289;-61
2023/12/10 00:33:52;;;;;;;0.40;0.40;;;6.10;99.90;;;;;;5051075;28;20173;-61
2023/12/10 00:36:18;;;;;;;0.30;0.30;;;6.20;99.90;;;;;;5051061;28;20220;-61
2023/12/10 00:38:45;;;;;;;0.50;0.50;;;6.20;99.90;;;;;;5050911;28;20259;-61
2023/12/10 00:41:12;;;;;;;4.00;0.50;;;6.30;99.90;;;;;;5050906;28;20204;-61
2023/12/10 00:43:40;;;;;;;9.98;0.90;;;6.30;99.90;;;;;;5051050;28;20226;-61
2023/12/10 00:46:06;;;;;;;1.08;0.60;;;6.30;99.90;;;;;;5051045;28;20180;-61
2023/12/10 00:48:37;;;;;;;2.23;0.97;;;6.30;99.90;;;;;;5052529;28;20676;-61
2023/12/10 00:51:03;;;;;;;0.40;0.40;;;6.30;99.90;;;;;;5052355;28;20462;-61
2023/12/10 00:53:28;;;;;;;34.23;1.17;;;6.30;99.90;;;;;;5051117;28;20196;-61
2023/12/10 00:55:54;;;;;;;3.60;1.23;;;6.50;99.90;;;;;;5050640;28;20416;-61
2023/12/10 00:58:20;;;;;;;0.67;0.63;;;6.50;99.90;;;;;;5051046;28;20231;-61
2023/12/10 01:00:45;;;;;;;2.77;1.80;;;6.50;99.90;;;;;;5050444;28;20224;-61
2023/12/10 01:03:11;;;;;;;1.97;1.83;;;6.40;99.90;;;;;;5050897;28;20192;-61
2023/12/10 01:05:37;;;;;;;11.73;2.10;;;6.40;99.90;;;;;;5050605;28;20690;-61
2023/12/10 01:08:03;;;;;;;0.60;0.60;;;6.30;99.90;;;;;;5061065;28;20176;-61
2023/12/10 01:10:29;;;;;;;9.48;1.42;;;6.20;99.90;;;;;;5070338;28;20735;-60
2023/12/10 01:12:56;;;;;;;10.43;0.60;;;6.10;99.90;;;;;;5070730;28;20218;-59
2023/12/10 01:15:29;;;;;;;0.47;0.47;;;6.00;99.90;;;;;;5073362;28;20179;-61
2023/12/10 01:18:01;;;;;;;0.82;0.82;;;5.90;99.90;;;;;;5078892;28;20176;-61
2023/12/10 01:20:29;;;;;;;0.60;0.60;;;6.00;99.90;;;;;;5093838;28;20178;-61
2023/12/10 01:22:54;;;;;;;0.43;0.43;;;6.10;99.90;;;;;;5094610;28;20179;-61
2023/12/10 01:25:20;;;;;;;0.50;0.50;;;6.00;99.90;;;;;;5071027;28;20184;-61
2023/12/10 01:27:48;;;;;;;0.50;0.50;;;6.00;99.90;;;;;;5063214;28;20173;-60
2023/12/10 01:30:14;;;;;;;0.65;0.65;;;6.10;99.90;;;;;;5063484;28;20185;-61
2023/12/10 01:32:40;;;;;;;0.73;0.73;;;6.10;99.90;;;;;;5062692;28;20554;-60
2023/12/10 01:35:08;;;;;;;35.72;1.33;;;5.90;99.90;;;;;;5062800;28;20179;-61
2023/12/10 01:37:33;;;;;;;0.70;0.70;;;5.90;99.90;;;;;;5063617;28;20646;-60
2023/12/10 01:39:59;;;;;;;3.33;0.93;;;5.80;99.90;;;;;;5064121;28;20203;-61
2023/12/10 01:42:25;;;;;;;3.97;0.90;;;5.70;99.90;;;;;;5045017;28;20827;-61
2023/12/10 01:44:52;;;;;;;1.03;0.67;;;5.80;99.90;;;;;;5062234;28;20461;-61
2023/12/10 01:47:19;;;;;;;2.15;1.50;;;5.90;99.90;;;;;;5063695;28;20827;-61
2023/12/10 01:49:48;;;;;;;0.70;0.70;;;5.90;99.90;;;;;;5046287;28;20166;-61
2023/12/10 01:52:14;;;;;;;8.30;0.75;;;5.90;99.90;;;;;;5063941;28;20212;-60
2023/12/10 01:54:39;;;;;;;1.13;0.80;;;5.80;99.90;;;;;;5062123;28;20570;-60
2023/12/10 01:57:07;;;;;;;1.40;1.30;;;5.90;99.90;;;;;;5063228;28;20943;-60
2023/12/10 01:59:35;;;;;;;0.80;0.80;;;6.10;99.90;;;;;;5046862;28;20518;-61
2023/12/10 02:02:00;;;;;;;0.80;0.50;;;6.20;99.90;;;;;;5061985;28;20196;-61
2023/12/10 02:04:27;;;;;;;0.30;0.30;;;6.00;99.90;;;;;;5063145;28;20218;-60
2023/12/10 02:06:53;;;;;;;0.40;0.40;;;6.00;99.90;;;;;;5061400;28;20426;-61
2023/12/10 02:09:20;;;;;;;0.50;0.50;;;6.10;99.90;;;;;;5063353;28;20172;-60
2023/12/10 02:11:46;;;;;;;0.30;0.30;;;6.10;99.90;;;;;;5062926;28;20239;-61
2023/12/10 02:14:12;;;;;;;3.70;1.47;;;6.20;99.90;;;;;;5061470;28;20589;-61
2023/12/10 02:16:38;;;;;;;1.13;0.80;;;6.10;99.90;;;;;;5063403;28;20413;-60
2023/12/10 02:19:04;;;;;;;16.58;2.00;;;6.30;99.90;;;;;;5061656;28;20240;-61
2023/12/10 02:21:32;;;;;;;20.67;4.00;;;6.30;99.90;;;;;;5063043;28;20215;-61
2023/12/10 02:24:08;;;;;;;5.15;2.25;;;6.40;99.90;;;;;;5063538;28;20783;-60
2023/12/10 02:26:34;;;;;;;17.27;1.35;;;6.40;99.90;;;;;;5062608;28;20183;-61
2023/12/10 02:29:00;;;;;;;0.60;0.57;;;6.20;99.90;;;;;;5063440;28;20167;-60
2023/12/10 02:31:27;;;;;;;0.90;0.60;;;6.30;99.90;;;;;;5061135;28;20452;-61
2023/12/10 02:33:53;;;;;;;1.15;0.98;;;6.40;99.90;;;;;;5062195;28;20169;-61
2023/12/10 02:36:19;;;;;;;0.57;0.57;;;6.30;99.90;;;;;;5068106;28;20181;-61
2023/12/10 02:38:45;;;;;;;0.40;0.40;;;5.90;99.90;;;;;;5072705;28;20250;-61
2023/12/10 02:41:11;;;;;;;0.93;0.93;;;5.80;99.90;;;;;;5071759;28;20215;-61
2023/12/10 02:43:36;;;;;;;0.30;0.30;;;5.80;99.90;;;;;;5054170;28;20178;-61
2023/12/10 02:46:02;;;;;;;0.30;0.30;;;6.00;99.90;;;;;;5072566;28;20173;-61
2023/12/10 02:48:28;;;;;;;0.50;0.50;;;5.90;99.90;;;;;;5072543;28;20583;-61
2023/12/10 02:50:55;;;;;;;0.30;0.30;;;6.10;99.90;;;;;;5072049;28;20208;-61
2023/12/10 02:53:21;;;;;;;17.80;1.92;;;6.20;99.90;;;;;;5072406;28;20181;-61
2023/12/10 02:55:47;;;;;;;0.50;0.50;;;6.30;99.90;;;;;;5072383;28;20188;-61
2023/12/10 02:58:13;;;;;;;0.40;0.40;;;6.20;99.90;;;;;;5072256;28;20162;-61
2023/12/10 03:00:38;;;;;;;0.50;0.50;;;6.20;99.90;;;;;;5071885;28;20250;-61
2023/12/10 03:03:04;;;;;;;6.20;1.27;;;6.10;99.90;;;;;;5072319;28;20553;-61
2023/12/10 03:05:30;;;;;;;1.50;1.50;;;6.10;99.90;;;;;;5072194;28;20406;-61
2023/12/10 03:07:56;;;;;;;10.20;1.50;;;6.20;99.90;;;;;;5072086;28;20647;-60
2023/12/10 03:10:21;;;;;;;0.67;0.67;;;6.20;99.90;;;;;;5071940;28;20279;-61
2023/12/10 03:12:47;;;;;;;0.67;0.67;;;6.00;99.90;;;;;;5072032;28;20537;-60
2023/12/10 03:15:13;;;;;;;0.60;0.60;;;6.00;99.90;;;;;;5072002;28;20218;-61
2023/12/10 03:17:38;;;;;;;2.20;1.70;;;6.00;99.90;;;;;;5072017;28;20202;-61
2023/12/10 03:20:05;;;;;;;0.40;0.40;;;5.90;99.90;;;;;;5071988;28;20200;-61
2023/12/10 03:22:31;;;;;;;4.13;1.25;;;6.00;99.90;;;;;;5076713;28;20210;-61
2023/12/10 03:24:56;;;;;;;0.40;0.40;;;6.10;99.90;;;;;;5077720;28;20177;-61
2023/12/10 03:27:22;;;;;;;10.03;1.13;;;5.90;99.90;;;;;;5077572;28;20499;-61
2023/12/10 03:29:48;;;;;;;0.50;0.50;;;5.80;99.90;;;;;;5077824;28;20178;-61
2023/12/10 03:32:15;;;;;;;0.60;0.60;;;5.90;99.90;;;;;;5077056;28;20601;-61
2023/12/10 03:34:40;;;;;;;1.42;1.35;;;5.80;99.90;;;;;;5077200;28;20169;-61
2023/12/10 03:37:06;;;;;;;0.50;0.50;;;5.70;99.90;;;;;;5076459;28;20177;-61
2023/12/10 03:39:31;;;;;;;0.40;0.40;;;5.80;99.90;;;;;;5078347;28;20169;-61
2023/12/10 03:41:57;;;;;;;1.70;1.63;;;5.80;99.90;;;;;;5077480;28;20233;-61
2023/12/10 03:44:23;;;;;;;1.83;1.27;;;5.90;99.90;;;;;;5078105;28;20179;-61
2023/12/10 03:46:49;;;;;;;0.30;0.30;;;6.00;99.90;;;;;;5076295;28;20743;-61
2023/12/10 03:49:15;;;;;;;2.97;1.17;;;6.00;99.90;;;;;;5077023;28;20279;-61
2023/12/10 03:51:40;;;;;;;0.50;0.50;;;5.90;99.90;;;;;;5077054;28;20212;-61
2023/12/10 03:54:06;;;;;;;1.57;1.47;;;5.80;99.90;;;;;;5076295;28;20227;-61
2023/12/10 03:56:32;;;;;;;2.30;1.20;;;5.90;99.90;;;;;;5076942;28;20262;-61
2023/12/10 03:58:58;;;;;;;0.30;0.30;;;6.00;99.90;;;;;;5076922;28;20200;-61
2023/12/10 04:01:24;;;;;;;0.73;0.73;;;6.00;99.90;;;;;;5076885;28;20204;-61
2023/12/10 04:03:49;;;;;;;2.00;0.70;;;6.10;99.90;;;;;;5077591;28;20181;-61
2023/12/10 04:06:15;;;;;;;0.70;0.70;;;6.10;99.90;;;;;;5078754;28;20182;-61
2023/12/10 04:08:41;;;;;;;2.30;1.80;;;6.20;99.90;;;;;;5078085;28;20174;-61
2023/12/10 04:11:06;;;;;;;3.13;1.53;;;6.20;99.90;;;;;;5077382;28;20211;-61
2023/12/10 04:13:32;;;;;;;0.93;0.93;;;6.20;99.90;;;;;;5078301;28;20170;-61
2023/12/10 04:16:00;;;;;;;0.53;0.53;;;6.10;99.90;;;;;;5059780;28;20254;-61
2023/12/10 04:18:27;;;;;;;0.30;0.30;;;6.20;99.90;;;;;;5077759;28;20173;-61
2023/12/10 04:20:52;;;;;;;1.02;0.60;;;6.10;99.90;;;;;;5076239;28;20692;-61
2023/12/10 04:23:18;;;;;;;2.10;2.00;;;6.10;99.90;;;;;;5077959;28;20182;-61
2023/12/10 04:25:43;;;;;;;0.50;0.50;;;6.10;99.90;;;;;;5077913;28;20586;-61
2023/12/10 04:28:09;;;;;;;8.97;1.07;;;6.10;99.90;;;;;;5078385;28;20167;-61
2023/12/10 04:30:35;;;;;;;0.50;0.50;;;6.20;99.90;;;;;;5078157;28;20203;-61
2023/12/10 04:33:00;;;;;;;0.93;0.93;;;6.40;99.90;;;;;;5078132;28;20252;-61
2023/12/10 04:35:26;;;;;;;2.37;0.77;;;6.40;99.90;;;;;;5078680;28;20179;-61
2023/12/10 04:37:52;;;;;;;1.47;0.97;;;6.30;99.90;;;;;;5077373;28;20169;-61
2023/12/10 04:40:17;;;;;;;2.63;2.53;;;6.20;99.90;;;;;;5078371;28;20177;-61
2023/12/10 04:42:43;;;;;;;10.37;3.57;;;6.20;99.90;;;;;;5077091;28;20187;-62
2023/12/10 04:45:09;;;;;;;13.60;4.27;;;6.20;99.90;;;;;;5077304;28;20683;-61
2023/12/10 04:47:35;;;;;;;1.07;0.50;;;6.30;99.90;;;;;;5077605;28;20684;-60
2023/12/10 04:50:02;;;;;;;3.80;1.10;;;6.30;99.90;;;;;;5077656;28;20402;-59
2023/12/10 04:52:30;;;;;;;3.80;2.83;;;6.20;99.90;;;;;;5067515;28;20212;-58
2023/12/10 04:54:57;;;;;;;0.40;0.40;;;6.00;99.90;;;;;;5061716;28;20187;-58
2023/12/10 04:57:23;;;;;;;2.22;1.70;;;5.90;99.90;;;;;;5060561;28;20188;-59
2023/12/10 04:59:49;;;;;;;0.67;0.67;;;5.90;99.90;;;;;;5060885;28;20684;-58
2023/12/10 05:02:14;;;;;;;0.40;0.40;;;5.90;99.90;;;;;;5042524;28;20190;-58
2023/12/10 05:04:40;;;;;;;0.70;0.70;;;6.00;99.90;;;;;;5060631;28;20224;-59
2023/12/10 05:07:05;;;;;;;0.50;0.50;;;6.20;99.90;;;;;;5060883;28;20170;-59
2023/12/10 05:09:32;;;;;;;12.33;0.97;;;6.20;99.90;;;;;;5060108;28;20187;-59
2023/12/10 05:11:58;;;;;;;1.00;1.00;;;6.30;99.90;;;;;;5060216;28;20265;-58
2023/12/10 05:14:24;;;;;;;0.63;0.63;;;6.20;99.90;;;;;;5060140;28;20202;-59
2023/12/10 05:16:49;;;;;;;0.60;0.60;;;6.10;99.90;;;;;;5042269;28;20261;-58
2023/12/10 05:19:15;;;;;;;0.30;0.30;;;6.00;99.90;;;;;;5059926;28;20253;-59
2023/12/10 05:21:40;;;;;;;8.63;0.63;;;5.90;99.90;;;;;;5059513;28;20210;-59
2023/12/10 05:24:06;;;;;;;2.83;1.10;;;6.00;99.90;;;;;;5060465;28;20176;-59
2023/12/10 05:26:32;;;;;;;0.30;0.30;;;5.90;99.90;;;;;;5059869;28;20198;-59
2023/12/10 05:28:57;;;;;;;4.87;1.20;;;5.80;99.90;;;;;;5059135;28;20179;-59
2023/12/10 05:31:23;;;;;;;9.13;0.60;;;5.90;99.90;;;;;;5059131;28;20690;-59
2023/12/10 05:33:48;;;;;;;0.70;0.60;;;5.90;99.90;;;;;;5059136;28;20170;-59
2023/12/10 05:36:15;;;;;;;2.10;2.00;;;5.80;99.90;;;;;;5059278;28;20166;-58
2023/12/10 05:38:41;;;;;;;0.57;0.57;;;5.70;99.90;;;;;;5059107;28;20558;-59
2023/12/10 05:41:06;;;;;;;5.93;1.23;;;5.50;99.90;;;;;;5058969;28;20271;-59
2023/12/10 05:43:32;;;;;;;1.17;1.17;;;5.70;99.90;;;;;;5059188;28;20170;-58
2023/12/10 05:45:57;;;;;;;0.30;0.30;;;5.50;99.90;;;;;;5058709;28;20196;-58
2023/12/10 05:48:23;;;;;;;1.33;1.30;;;5.60;99.90;;;;;;5058964;28;20185;-58
2023/12/10 05:50:49;;;;;;;0.87;0.87;;;5.70;99.90;;;;;;5058518;28;20225;-59
2023/12/10 05:53:14;;;;;;;1.23;1.13;;;5.60;99.90;;;;;;5058751;28;20269;-58
2023/12/10 05:55:40;;;;;;;0.40;0.40;;;5.70;99.90;;;;;;5058040;28;20562;-59
2023/12/10 05:58:06;;;;;;;3.70;1.03;;;5.80;99.90;;;;;;5058373;28;20172;-58
2023/12/10 06:00:31;;;;;;;2.30;2.10;;;5.90;99.90;;;;;;5057851;28;20172;-59
2023/12/10 06:02:57;;;;;;;0.30;0.30;;;6.00;99.90;;;;;;5058737;28;20182;-59
2023/12/10 06:05:23;;;;;;;0.50;0.50;;;6.00;99.90;;;;;;5058276;28;20197;-59
2023/12/10 06:07:48;;;;;;;2.20;1.73;;;5.80;99.90;;;;;;5057987;28;20174;-59
2023/12/10 06:10:14;;;;;;;0.40;0.40;;;5.80;99.90;;;;;;5057598;28;20859;-58
2023/12/10 06:12:40;;;;;;;0.30;0.30;;;5.80;99.90;;;;;;5057166;28;20217;-59
2023/12/10 06:15:06;;;;;;;0.40;0.40;;;5.70;99.90;;;;;;5058988;28;20636;-59
2023/12/10 06:17:31;;;;;;;1.13;0.67;;;5.40;99.90;;;;;;5058749;28;20170;-59
2023/12/10 06:19:57;;;;;;;0.40;0.40;;;5.50;99.90;;;;;;5059856;28;20461;-59
2023/12/10 06:22:23;;;;;;;1.80;0.90;;;5.70;99.90;;;;;;5059344;28;20636;-59
2023/12/10 06:24:51;;;;;;;1.37;1.27;;;5.80;99.90;;;;;;5059110;28;20171;-59
2023/12/10 06:27:16;;;;;;;0.40;0.40;;;6.00;99.90;;;;;;5058946;28;20409;-59
2023/12/10 06:29:42;;;;;;;0.30;0.30;;;6.00;99.90;;;;;;5040910;28;20184;-59
2023/12/10 06:32:08;;;;;;;1.73;0.97;;;5.80;99.90;;;;;;5058328;28;20202;-59
2023/12/10 06:34:33;;;;;;;1.73;1.63;;;5.80;99.90;;;;;;5058511;28;20185;-58
2023/12/10 06:36:59;;;;;;;1.10;0.97;;;5.80;99.90;;;;;;5058064;28;20170;-59
2023/12/10 06:39:25;;;;;;;1.13;1.13;;;5.70;99.90;;;;;;5058601;28;20182;-58
2023/12/10 06:41:50;;;;;;;0.40;0.40;;;5.60;99.90;;;;;;5057469;28;20683;-59
2023/12/10 06:44:21;;;;;;;2.60;0.60;;;5.70;99.90;;;;;;5058229;28;20423;-59
2023/12/10 06:46:50;;;;;;;1.17;1.17;;;5.80;99.90;;;;;;5058692;28;20178;-59
2023/12/10 06:49:16;;;;;;;3.45;1.63;;;5.80;99.90;;;;;;5058361;28;20186;-59
2023/12/10 06:51:42;;;;;;;1.70;1.60;;;5.80;99.90;;;;;;5057683;28;20804;-58
2023/12/10 06:54:09;;;;;;;0.50;0.40;;;5.60;99.90;;;;;;5040108;28;20270;-58
2023/12/10 06:56:39;;;;;;;0.75;0.73;;;5.80;99.90;;;;;;5057749;28;20443;-58
2023/12/10 06:59:06;;;;;;;0.68;0.68;;;5.90;99.90;;;;;;5058060;28;20170;-59
2023/12/10 07:01:33;;;;;;;1.48;1.45;;;6.10;99.90;;;;;;5056503;28;20190;-59
2023/12/10 07:03:58;;;;;;;0.30;0.30;;;6.10;99.90;;;;;;5057912;28;20523;-59
2023/12/10 07:06:24;;;;;;;1.13;1.13;;;6.10;99.90;;;;;;5058058;28;20234;-59
2023/12/10 07:08:49;;;;;;;0.60;0.60;;;6.20;99.90;;;;;;5058583;28;20175;-59
2023/12/10 07:11:15;;;;;;;0.83;0.83;;;6.20;99.90;;;;;;5056876;28;20622;-59
2023/12/10 07:13:41;;;;;;;1.53;0.80;;;6.20;99.90;;;;;;5057699;28;20176;-59
2023/12/10 07:16:07;;;;;;;1.40;1.13;;;6.10;99.90;;;;;;5058230;28;20170;-59
2023/12/10 07:18:33;;;;;;;0.80;0.63;;;6.00;99.90;;;;;;5058758;28;20179;-59
2023/12/10 07:20:58;;;;;;;4.17;1.90;;;6.10;99.90;;;;;;5057589;28;20292;-59
2023/12/10 07:23:25;;;;;;;0.83;0.83;;;6.10;99.90;;;;;;5058845;28;20925;-59
2023/12/10 07:25:50;;;;;;;3.63;1.55;;;6.10;99.90;;;;;;5058535;28;20195;-59
2023/12/10 07:28:16;;;;;;;4.17;1.13;;;6.00;99.90;;;;;;5058679;28;20222;-59
2023/12/10 07:30:42;;;;;;;0.55;0.52;;;6.00;99.90;;;;;;5056989;28;20288;-59
2023/12/10 07:33:07;;;;;;;0.47;0.47;;;5.80;99.90;;;;;;5093371;28;20193;-59
2023/12/10 07:35:33;;;;;;;0.30;0.30;;;6.00;99.90;;;;;;5094199;28;20726;-58
2023/12/10 07:37:59;;;;;;;0.40;0.40;;;5.90;99.90;;;;;;5076473;28;20240;-58
2023/12/10 07:40:24;;;;;;;4.40;1.80;;;6.10;99.90;;;;;;5076020;28;20227;-58
2023/12/10 07:42:51;;;;;;;1.57;1.57;;;6.00;99.90;;;;;;5076832;28;20235;-58
2023/12/10 07:45:16;;;;;;;1.52;1.15;;;6.00;99.90;;;;;;5076905;28;20254;-59
2023/12/10 07:47:42;;;;;;;0.50;0.50;;;6.10;99.90;;;;;;5077261;28;20208;-59
2023/12/10 07:50:08;;;;;;;0.57;0.57;;;6.10;99.90;;;;;;5077339;28;20169;-59
2023/12/10 07:52:34;;;;;;;4.87;0.70;;;6.20;99.90;;;;;;5075327;28;20208;-57
2023/12/10 07:54:59;;;;;;;0.87;0.87;;;6.30;99.90;;;;;;5071725;28;20509;-57
2023/12/10 07:57:25;;;;;;;1.80;1.70;;;6.60;99.90;;;;;;5071885;28;20196;-57
2023/12/10 07:59:51;;;;;;;2.97;1.10;;;7.10;99.90;;;;;;5071736;28;20252;-57
2023/12/10 08:02:16;;;;;;;1.07;0.97;;;7.90;99.90;;;;;;5071727;28;20212;-57
2023/12/10 08:04:42;;;;;;;4.53;1.27;;;8.50;99.90;;;;;;5071677;28;20404;-58
2023/12/10 08:07:08;;;;;;;3.70;0.50;;;9.00;99.90;;;;;;5071763;28;20184;-58
2023/12/10 08:09:34;;;;;;;6.53;1.37;;;9.40;98.60;;;;;;5071541;28;20165;-55
2023/12/10 08:12:00;;;;;;;0.43;0.40;;;9.80;98.80;;;;;;5070858;28;20678;-57
2023/12/10 08:14:27;;;;;;;1.30;1.02;;;9.50;95.90;;;;;;5071258;28;20571;-57
2023/12/10 08:16:53;;;;;;;2.08;1.33;;;8.90;95.80;;;;;;5070968;28;20177;-57
2023/12/10 08:19:18;;;;;;;0.30;0.30;;;8.30;96.60;;;;;;5071413;28;20227;-57
2023/12/10 08:21:44;;;;;;;0.60;0.60;;;7.80;97.70;;;;;;5070835;28;20279;-58
2023/12/10 08:24:10;;;;;;;1.23;1.13;;;7.50;98.50;;;;;;5072459;28;20643;-57
2023/12/10 08:26:36;;;;;;;4.30;1.95;;;7.30;98.90;;;;;;5089133;28;20176;-58
2023/12/10 08:29:02;;;;;;;3.80;0.77;;;7.00;99.90;;;;;;5095520;28;20176;-57
2023/12/10 08:31:28;;;;;;;2.45;1.75;;;7.10;99.90;;;;;;5095051;28;20283;-57
2023/12/10 08:33:53;;;;;;;1.17;1.07;;;7.00;99.90;;;;;;5095366;28;20252;-58
2023/12/10 08:36:19;;;;;;;2.70;2.50;;;6.90;99.90;;;;;;5095360;28;20202;-57
2023/12/10 08:38:45;;;;;;;1.17;1.03;;;6.80;99.90;;;;;;5095223;28;20753;-57
2023/12/10 08:41:10;;;;;;;6.63;1.10;;;6.70;99.90;;;;;;5095131;28;20232;-61
2023/12/10 08:43:37;;;;;;;0.50;0.50;;;6.80;99.90;;;;;;5095236;28;20172;-57
2023/12/10 08:46:03;;;;;;;1.55;1.45;;;6.80;99.90;;;;;;5095258;28;20180;-57
2023/12/10 08:48:30;;;;;;;0.93;0.93;;;6.70;99.90;;;;;;5095100;28;20176;-56
2023/12/10 08:50:56;;;;;;;1.70;1.42;;;6.60;99.90;;;;;;5094564;28;20543;-56
2023/12/10 08:53:21;;;;;;;2.53;1.87;;;6.30;99.90;;;;;;5094981;28;20278;-56
2023/12/10 08:55:48;;;;;;;1.10;1.10;;;6.10;99.90;;;;;;5095045;28;20581;-56
2023/12/10 08:58:14;;;;;;;2.13;2.00;;;6.10;99.90;;;;;;5094921;28;20185;-56
2023/12/10 09:00:40;;;;;;;3.33;1.20;;;6.20;99.90;;;;;;5079969;28;20684;-58
2023/12/10 09:03:05;;;;;;;0.97;0.97;;;6.30;99.90;;;;;;5074544;28;20410;-57
2023/12/10 09:05:31;;;;;;;0.37;0.37;;;6.50;99.90;;;;;;5073511;28;20254;-57
2023/12/10 09:07:57;;;;;;;0.37;0.37;;;6.50;99.90;;;;;;5074050;28;20219;-58
2023/12/10 09:10:23;;;;;;;0.60;0.52;;;6.60;99.90;;;;;;5073095;28;20211;-58
2023/12/10 09:12:49;;;;;;;6.53;1.53;;;6.50;99.90;;;;;;5073952;28;20610;-58
2023/12/10 09:15:15;;;;;;;5.20;0.97;;;6.50;99.90;;;;;;5074245;28;20204;-58
2023/12/10 09:17:40;;;;;;;1.10;1.10;;;6.50;99.90;;;;;;5074292;28;20176;-58
2023/12/10 09:20:07;;;;;;;7.03;2.00;;;6.40;99.90;;;;;;5073708;28;20219;-57
2023/12/10 09:22:33;;;;;;;4.00;0.82;;;6.30;99.90;;;;;;5074776;28;20692;-57
2023/12/10 09:24:58;;;;;;;1.80;1.13;;;6.30;99.90;;;;;;5074531;28;20184;-57
2023/12/10 09:27:24;;;;;;;0.70;0.50;;;6.40;99.90;;;;;;5074388;28;20185;-57
2023/12/10 09:29:50;;;;;;;0.40;0.40;;;6.40;99.90;;;;;;5074003;28;20175;-56
2023/12/10 09:32:16;;;;;;;1.00;1.00;;;6.40;99.90;;;;;;5073697;28;20203;-57
2023/12/10 09:34:43;;;;;;;2.50;1.02;;;6.50;99.90;;;;;;5074000;28;20286;-57
2023/12/10 09:37:13;;;;;;;1.40;1.30;;;6.40;99.90;;;;;;5074684;28;20654;-56
2023/12/10 09:39:39;;;;;;;0.85;0.85;;;6.40;99.90;;;;;;5063811;28;20836;-57
2023/12/10 09:42:05;;;;;;;0.97;0.97;;;6.30;99.90;;;;;;5061553;28;20194;-57
2023/12/10 09:44:31;;;;;;;13.93;1.00;;;6.20;99.90;;;;;;5064051;28;20416;-57
2023/12/10 09:46:56;;;;;;;1.03;0.93;;;6.00;99.90;;;;;;5070438;28;20907;-57
2023/12/10 09:49:23;;;;;;;0.63;0.63;;;5.80;99.90;;;;;;5059474;28;20196;-57
2023/12/10 09:51:49;;;;;;;1.70;1.60;;;5.80;99.90;;;;;;5053162;28;20461;-57
2023/12/10 09:54:14;;;;;;;2.00;1.90;;;6.10;99.90;;;;;;5053908;28;20271;-58
2023/12/10 09:56:40;;;;;;;1.03;1.03;;;6.20;99.90;;;;;;5054253;28;20177;-57
2023/12/10 09:59:06;;;;;;;3.13;2.13;;;6.10;99.90;;;;;;5064091;28;20206;-57
2023/12/10 10:01:31;;;;;;;0.35;0.35;;;6.20;99.90;;;;;;5057447;28;20195;-57
2023/12/10 10:03:58;;;;;;;1.90;1.43;;;6.20;99.90;;;;;;5073955;28;20181;-57
2023/12/10 10:06:24;;;;;;;1.77;1.00;;;6.30;99.90;;;;;;5064990;28;20177;-56
2023/12/10 10:08:49;;;;;;;2.10;0.80;;;6.40;99.90;;;;;;5054619;28;20264;-57
2023/12/10 10:11:16;;;;;;;0.40;0.40;;;6.40;99.90;;;;;;5053097;28;20257;-57
2023/12/10 10:13:54;;;;;;;0.70;0.70;;;6.60;99.90;;;;;;5053955;28;20548;-57
2023/12/10 10:16:20;;;;;;;3.05;1.60;;;6.70;99.90;;;;;;5053569;28;20179;-56
2023/12/10 10:18:47;;;;;;;0.47;0.47;;;6.70;99.90;;;;;;5053514;28;20236;-57
2023/12/10 10:21:13;;;;;;;0.60;0.45;;;6.70;99.90;;;;;;5053805;28;20224;-57
2023/12/10 10:23:38;;;;;;;2.70;0.70;;;6.40;99.90;;;;;;5073205;28;20267;-57
2023/12/10 10:26:04;;;;;;;2.40;0.90;;;6.40;99.90;;;;;;5073679;28;20213;-57
2023/12/10 10:28:30;;;;;;;3.80;0.80;;;6.40;99.90;;;;;;5073456;28;20172;-57
2023/12/10 10:30:57;;;;;;;0.30;0.30;;;6.50;99.90;;;;;;5072222;28;20997;-57
2023/12/10 10:33:25;;;;;;;10.45;0.85;;;6.60;99.90;;;;;;5073526;28;20192;-59
2023/12/10 10:35:52;;;;;;;0.40;0.40;;;6.70;99.90;;;;;;5073620;28;20641;-57
2023/12/10 10:38:20;;;;;;;0.52;0.52;;;6.80;99.90;;;;;;5073626;28;20253;-59
2023/12/10 10:40:47;;;;;;;10.52;1.02;;;6.60;99.90;;;;;;5072205;28;20708;-58
2023/12/10 10:43:13;;;;;;;0.50;0.50;;;6.60;99.90;;;;;;5072750;28;20184;-57
2023/12/10 10:45:39;;;;;;;0.90;0.90;;;6.70;99.90;;;;;;5072599;28;20181;-57
2023/12/10 10:48:05;;;;;;;0.40;0.40;;;6.60;99.90;;;;;;5072604;28;20415;-57
2023/12/10 10:50:35;;;;;;;21.80;1.67;;;6.50;99.90;;;;;;5071893;28;20175;-58
2023/12/10 10:53:01;;;;;;;0.82;0.50;;;6.50;99.90;;;;;;5072774;28;20164;-58
2023/12/10 10:55:27;;;;;;;1.02;0.82;;;6.50;99.90;;;;;;5072628;28;20645;-57
2023/12/10 10:57:54;;;;;;;7.73;4.33;;;6.60;99.90;;;;;;5072484;28;20178;-57
2023/12/10 11:00:22;;;;;;;1.27;1.05;;;6.60;99.90;;;;;;5071783;28;20187;-57
2023/12/10 11:02:53;;;;;;;1.35;1.35;;;6.60;99.90;;;;;;5072334;28;20167;-57
2023/12/10 11:05:35;;;;;;;0.40;0.40;;;6.60;99.90;;;;;;5072311;28;20226;-57
2023/12/10 11:08:03;;;;;;;0.50;0.50;;;6.50;99.90;;;;;;5072328;28;20172;-57
2023/12/10 11:10:29;;;;;;;1.70;0.60;;;6.50;99.90;;;;;;5071864;28;20262;-59
2023/12/10 11:12:57;;;;;;;1.40;1.00;;;6.70;99.90;;;;;;5071780;28;20701;-59
2023/12/10 11:15:24;;;;;;;1.30;1.20;;;6.70;99.90;;;;;;5071599;28;20434;-59
2023/12/10 11:17:54;;;;;;;24.05;2.80;;;6.70;99.90;;;;;;5071869;28;20173;-59
2023/12/10 11:20:36;;;;;;;6.78;2.20;;;6.60;99.90;;;;;;5071406;28;20176;-59
2023/12/10 11:23:06;;;;;;;0.95;0.95;;;6.70;99.90;;;;;;5071977;28;20203;-59
2023/12/10 11:25:32;;;;;;;5.00;1.17;;;6.60;99.90;;;;;;5071697;28;20258;-59
2023/12/10 11:28:01;;;;;;;1.58;0.88;;;6.50;99.90;;;;;;5071838;28;20194;-59
2023/12/10 11:30:27;;;;;;;2.28;0.47;;;6.50;99.90;;;;;;5071426;28;20175;-62
2023/12/10 11:32:54;;;;;;;2.30;0.77;;;6.50;99.90;;;;;;5071772;28;20522;-58
2023/12/10 11:35:20;;;;;;;0.55;0.55;;;6.60;99.90;;;;;;5071892;28;20494;-64
2023/12/10 11:37:45;;;;;;;1.43;0.80;;;6.60;99.90;;;;;;5071733;28;20210;-58
2023/12/10 11:40:11;;;;;;;1.40;0.70;;;6.70;99.90;;;;;;5071453;28;20247;-60
2023/12/10 11:42:37;;;;;;;3.23;1.30;;;7.00;99.90;;;;;;5071670;28;20192;-59
2023/12/10 11:45:04;;;;;;;1.00;1.00;;;7.10;99.90;;;;;;5071758;28;20417;-59
2023/12/10 11:47:30;;;;;;;13.90;2.15;;;7.00;99.90;;;;;;5071843;28;20538;-59
2023/12/10 11:49:55;;;;;;;0.50;0.50;;;7.10;99.90;;;;;;5071451;28;20173;-59
2023/12/10 11:52:21;;;;;;;9.60;2.17;;;7.30;99.90;;;;;;5071084;28;20574;-59
2023/12/10 11:54:48;;;;;;;1.20;1.20;;;7.30;99.90;;;;;;5071496;28;20193;-59
2023/12/10 11:57:14;;;;;;;4.97;1.88;;;7.50;99.90;;;;;;5071367;28;20419;-59
2023/12/10 11:59:40;;;;;;;3.80;1.08;;;7.50;99.90;;;;;;5071129;28;20176;-59
2023/12/10 12:02:06;;;;;;;0.50;0.50;;;7.50;99.90;;;;;;5071194;28;20326;-59
2023/12/10 12:04:33;;;;;;;7.87;2.73;;;7.50;99.90;;;;;;5071488;28;20208;-59
2023/12/10 12:06:59;;;;;;;11.38;2.50;;;7.60;99.90;;;;;;5071382;28;20415;-58
2023/12/10 12:09:25;;;;;;;0.60;0.60;;;7.50;99.90;;;;;;5071335;28;20183;-59
2023/12/10 12:11:51;;;;;;;0.40;0.30;;;7.40;99.90;;;;;;5071003;28;20464;-58
2023/12/10 12:14:18;;;;;;;5.23;2.50;;;7.40;99.90;;;;;;5071389;28;20704;-59
2023/12/10 12:16:46;;;;;;;1.10;0.63;;;7.40;99.90;;;;;;5071344;28;20403;-59
2023/12/10 12:19:24;;;;;;;1.48;0.85;;;7.50;99.90;;;;;;5070929;28;20204;-59
2023/12/10 12:21:50;;;;;;;1.60;1.02;;;7.60;99.90;;;;;;5070749;28;20212;-59
2023/12/10 12:24:15;;;;;;;2.93;0.80;;;7.70;99.90;;;;;;5071458;28;20665;-60
2023/12/10 12:26:41;;;;;;;2.00;1.13;;;7.90;99.90;;;;;;5071341;28;20176;-59
2023/12/10 12:29:06;;;;;;;1.80;1.33;;;8.00;99.90;;;;;;5071299;28;20215;-60
2023/12/10 12:31:32;;;;;;;1.87;1.77;;;7.90;99.90;;;;;;5070807;28;20214;-59
2023/12/10 12:33:58;;;;;;;1.17;0.83;;;7.90;99.90;;;;;;5070900;28;20661;-60
2023/12/10 12:36:23;;;;;;;1.80;1.70;;;7.90;99.90;;;;;;5071381;28;20172;-60
2023/12/10 12:38:49;;;;;;;2.53;1.37;;;8.00;99.90;;;;;;5071357;28;20189;-59
2023/12/10 12:41:14;;;;;;;4.67;1.43;;;8.10;99.90;;;;;;5070704;28;20193;-60
2023/12/10 12:43:40;;;;;;;8.13;1.10;;;8.20;99.90;;;;;;5071373;28;20245;-60
2023/12/10 12:46:05;;;;;;;2.00;1.27;;;8.30;99.90;;;;;;5071279;28;20212;-59
2023/12/10 12:48:31;;;;;;;4.87;1.00;;;8.30;99.90;;;;;;5071057;28;20208;-59
2023/12/10 12:50:57;;;;;;;1.70;1.60;;;8.20;99.90;;;;;;5070877;28;20296;-60